createdAt,value
2022-07-25T00:02:16.162Z,101063.66
2022-07-25T00:07:18.035Z,101061.91
2022-07-25T00:12:21.140Z,101055.84
2022-07-25T00:17:22.884Z,101048.84
2022-07-25T00:22:24.703Z,101042.75
2022-07-25T00:27:27.032Z,101042.63
2022-07-25T00:32:28.751Z,101033.03
2022-07-25T00:37:30.527Z,101026.19
2022-07-25T00:42:33.417Z,101025.41
2022-07-25T00:47:35.236Z,101020.13
2022-07-25T00:52:37.062Z,101019.25
2022-07-25T00:57:39.015Z,101019.28
2022-07-25T01:02:42.219Z,101019.34
2022-07-25T01:07:44.441Z,101011.53
2022-07-25T01:12:54.800Z,101015.16
2022-07-25T01:17:56.602Z,100997.75
2022-07-25T01:22:59.905Z,101014.44
2022-07-25T01:28:01.775Z,100992.47
2022-07-25T01:33:06.645Z,100989.91
2022-07-25T01:38:09.092Z,100968.00
2022-07-25T01:43:12.000Z,100989.09
2022-07-25T01:48:13.782Z,100979.47
2022-07-25T01:53:15.563Z,100963.59
2022-07-25T01:58:17.297Z,100972.47
2022-07-25T02:03:31.397Z,100957.53
2022-07-25T02:08:34.689Z,100951.41
2022-07-25T02:13:36.361Z,100960.22
2022-07-25T02:18:38.390Z,100961.06
2022-07-25T02:23:40.678Z,100950.50
2022-07-25T02:28:43.863Z,100949.59
2022-07-25T02:33:46.297Z,100936.44
2022-07-25T02:38:48.199Z,100932.00
2022-07-25T02:43:49.966Z,100923.25
2022-07-25T02:48:51.789Z,100910.97
2022-07-25T02:53:58.544Z,100885.59
2022-07-25T02:59:00.691Z,100876.84
2022-07-25T03:04:02.491Z,100918.97
2022-07-25T03:09:04.810Z,100883.03
2022-07-25T03:14:09.148Z,100889.19
2022-07-25T03:19:12.797Z,100872.53
2022-07-25T03:24:14.847Z,100839.25
2022-07-25T03:29:16.592Z,100891.88
2022-07-25T03:34:18.455Z,100894.47
2022-07-25T03:39:22.250Z,100884.84
2022-07-25T03:44:25.847Z,100873.41
2022-07-25T03:49:27.604Z,100839.16
2022-07-25T03:54:29.427Z,100879.53
2022-07-25T03:59:32.513Z,100871.66
2022-07-25T04:04:34.405Z,100866.41
2022-07-25T04:09:36.126Z,100859.34
2022-07-25T04:14:37.907Z,100856.72
2022-07-25T04:19:39.717Z,100865.44
2022-07-25T04:24:41.526Z,100842.69
2022-07-25T04:29:43.257Z,100849.69
2022-07-25T04:34:45.191Z,100835.59
2022-07-25T04:39:46.938Z,100833.78
2022-07-25T04:44:48.675Z,100817.09
2022-07-25T04:49:50.417Z,100801.22
2022-07-25T04:54:52.157Z,100793.25
2022-07-25T04:59:53.866Z,100789.63
2022-07-25T05:04:55.644Z,100793.03
2022-07-25T05:09:57.469Z,100789.44
2022-07-25T05:14:59.166Z,100776.16
2022-07-25T05:20:00.927Z,100750.66
2022-07-25T05:25:02.778Z,100766.22
2022-07-25T05:30:07.255Z,100762.53
2022-07-25T05:35:10.498Z,100758.94
2022-07-25T05:40:13.127Z,100760.50
2022-07-25T05:45:14.919Z,100759.50
2022-07-25T05:50:16.650Z,100748.75
2022-07-25T05:55:19.141Z,100746.81
2022-07-25T06:00:20.960Z,100748.28
2022-07-25T06:05:22.999Z,100734.25
2022-07-25T06:10:24.736Z,100740.88
2022-07-25T06:15:27.500Z,100740.34
2022-07-25T06:20:29.488Z,100716.94
2022-07-25T06:25:35.433Z,100723.78
2022-07-25T06:31:22.601Z,100696.44
2022-07-25T06:36:53.547Z,100698.44
2022-07-25T06:42:05.729Z,100688.06
2022-07-25T06:48:23.416Z,100684.78
2022-07-25T06:53:45.836Z,100688.59
2022-07-25T07:05:20.779Z,100671.47
2022-07-25T07:10:49.097Z,100665.13
2022-07-25T07:15:54.376Z,100656.25
2022-07-25T07:26:49.680Z,100636.25
2022-07-25T07:32:59.694Z,100642.47
2022-07-25T07:38:04.539Z,100652.84
2022-07-25T07:49:22.154Z,100630.03
2022-07-25T07:55:26.854Z,100622.78
2022-07-25T08:06:14.480Z,100610.38
2022-07-25T08:12:04.866Z,100612.69
2022-07-25T08:17:24.978Z,100595.00
2022-07-25T08:29:17.233Z,100593.06
2022-07-25T08:34:42.461Z,100585.94
2022-07-25T08:39:56.370Z,100581.53
2022-07-25T08:46:23.840Z,100592.22
2022-07-25T08:51:42.129Z,100587.03
2022-07-25T08:57:04.353Z,100582.06
2022-07-25T09:02:25.471Z,100564.78
2022-07-25T09:07:50.303Z,100553.72
2022-07-25T09:13:13.860Z,100555.34
2022-07-25T09:18:25.234Z,100543.38
2022-07-25T09:23:55.929Z,100538.56
2022-07-25T09:28:58.812Z,100528.78
2022-07-25T09:34:01.708Z,100509.78
2022-07-25T09:39:05.715Z,100500.13
2022-07-25T09:44:23.098Z,100498.75
2022-07-25T09:49:26.767Z,100480.59
2022-07-25T09:54:30.660Z,100466.19
2022-07-25T09:59:35.536Z,100470.22
2022-07-25T10:04:52.152Z,100464.00
2022-07-25T10:09:56.273Z,100455.34
2022-07-25T10:15:13.909Z,100456.84
2022-07-25T10:20:15.587Z,100429.91
2022-07-25T10:25:21.467Z,100430.53
2022-07-25T10:30:43.204Z,100421.00
2022-07-25T10:35:45.681Z,100431.06
2022-07-25T10:40:48.168Z,100419.47
2022-07-25T10:45:58.563Z,100416.34
2022-07-25T10:51:06.362Z,100389.56
2022-07-25T10:56:22.487Z,100381.91
2022-07-25T11:01:31.069Z,100379.56
2022-07-25T11:06:34.226Z,100369.69
2022-07-25T11:11:43.220Z,100371.78
2022-07-25T11:16:48.917Z,100373.72
2022-07-25T11:21:59.541Z,100342.84
2022-07-25T11:27:01.270Z,100354.44
2022-07-25T11:32:09.452Z,100333.94
2022-07-25T11:37:14.629Z,100331.91
2022-07-25T11:42:20.288Z,100335.50
2022-07-25T11:47:32.336Z,100320.06
2022-07-25T11:52:37.742Z,100320.22
2022-07-25T11:57:47.177Z,100305.59
2022-07-25T12:02:50.607Z,100299.47
2022-07-25T12:07:55.126Z,100282.31
2022-07-25T12:12:59.703Z,100289.53
2022-07-25T12:18:02.784Z,100271.72
2022-07-25T12:23:11.264Z,100273.00
2022-07-25T12:28:14.235Z,100248.44
2022-07-25T12:33:17.281Z,100242.31
2022-07-25T12:38:19.655Z,100246.50
2022-07-25T12:43:21.977Z,100248.75
2022-07-25T12:48:23.689Z,100223.38
2022-07-25T12:53:25.484Z,100220.63
2022-07-25T12:58:27.353Z,100222.00
2022-07-25T13:03:29.218Z,100231.44
2022-07-25T13:08:30.969Z,100216.84
2022-07-25T13:13:32.678Z,100209.28
2022-07-25T13:18:34.540Z,100198.69
2022-07-25T13:23:36.810Z,100194.59
2022-07-25T13:28:38.855Z,100183.03
2022-07-25T13:33:40.636Z,100188.06
2022-07-25T13:38:45.425Z,100177.19
2022-07-25T13:43:47.687Z,100159.63
2022-07-25T13:48:49.645Z,100159.00
2022-07-25T13:53:51.649Z,100148.09
2022-07-25T13:58:54.726Z,100145.88
2022-07-25T14:03:56.920Z,100139.78
2022-07-25T14:08:58.725Z,100123.13
2022-07-25T14:14:00.441Z,100129.56
2022-07-25T14:19:02.513Z,100109.00
2022-07-25T14:24:05.295Z,100123.22
2022-07-25T14:29:11.122Z,100106.41
2022-07-25T14:34:15.506Z,100113.06
2022-07-25T14:39:17.713Z,100111.31
2022-07-25T14:44:19.965Z,100106.81
2022-07-25T14:49:22.769Z,100100.44
2022-07-25T14:54:28.202Z,100071.75
2022-07-25T14:59:30.084Z,100084.00
2022-07-25T15:04:32.391Z,100069.06
2022-07-25T15:09:34.170Z,100054.16
2022-07-25T15:14:35.911Z,100054.44
2022-07-25T15:19:37.631Z,100045.28
2022-07-25T15:25:14.049Z,100041.28
2022-07-25T15:30:01.199Z,100020.66
2022-07-25T15:35:04.165Z,100006.84
2022-07-25T15:40:07.498Z,100006.31
2022-07-25T15:45:31.902Z,100001.44
2022-07-25T15:50:31.533Z,99991.28
2022-07-25T15:55:34.787Z,99985.56
2022-07-25T16:00:39.098Z,99980.91
2022-07-25T16:05:41.390Z,99965.06
2022-07-25T16:10:43.290Z,99945.84
2022-07-25T16:15:45.027Z,99953.97
2022-07-25T16:20:47.105Z,99940.28
2022-07-25T16:25:48.836Z,99942.66
2022-07-25T16:30:51.154Z,99932.53
2022-07-25T16:35:52.978Z,99919.53
2022-07-25T16:40:54.867Z,99932.56
2022-07-25T16:45:56.686Z,99989.41
2022-07-25T16:50:58.486Z,100072.06
2022-07-25T16:56:00.274Z,100061.84
2022-07-25T17:01:02.042Z,100060.31
2022-07-25T17:06:04.039Z,100044.75
2022-07-25T17:11:06.115Z,100028.56
2022-07-25T17:16:10.384Z,100011.41
2022-07-25T17:21:15.126Z,100037.00
2022-07-25T17:26:16.947Z,100058.75
2022-07-25T17:31:18.751Z,100070.47
2022-07-25T17:36:20.604Z,100087.06
2022-07-25T17:41:22.330Z,100074.16
2022-07-25T17:46:24.168Z,100112.34
2022-07-25T17:51:26.112Z,100098.59
2022-07-25T17:56:27.841Z,100132.94
2022-07-25T18:01:30.008Z,100144.38
2022-07-25T18:06:31.822Z,100098.56
2022-07-25T18:11:33.705Z,100108.69
2022-07-25T18:16:35.500Z,100144.72
2022-07-25T18:21:37.190Z,100127.72
2022-07-25T18:26:40.739Z,100134.72
2022-07-25T18:31:42.550Z,100132.75
2022-07-25T18:36:45.026Z,100111.69
2022-07-25T18:41:46.800Z,100116.41
2022-07-25T18:46:48.652Z,100107.47
2022-07-25T18:51:50.479Z,100122.56
2022-07-25T18:56:52.473Z,100108.25
2022-07-25T19:01:55.131Z,100113.13
2022-07-25T19:06:57.599Z,100105.72
2022-07-25T19:12:01.114Z,100120.38
2022-07-25T19:17:04.381Z,100113.72
2022-07-25T19:22:07.874Z,100128.50
2022-07-25T19:27:10.468Z,100125.28
2022-07-25T19:32:12.195Z,100137.28
2022-07-25T19:37:17.985Z,100140.53
2022-07-25T19:42:20.622Z,100131.56
2022-07-25T19:47:22.378Z,100223.06
2022-07-25T19:52:24.286Z,100227.13
2022-07-25T19:57:26.067Z,100223.53
2022-07-25T20:02:27.931Z,100217.81
2022-07-25T20:07:29.850Z,100212.47
2022-07-25T20:12:36.211Z,100212.59
2022-07-25T20:17:38.131Z,100213.13
2022-07-25T20:22:41.810Z,100219.84
2022-07-25T20:27:44.954Z,100247.75
2022-07-25T20:32:46.894Z,100253.44
2022-07-25T20:37:48.633Z,100275.19
2022-07-25T20:42:50.372Z,100290.13
2022-07-25T20:47:52.117Z,100315.59
2022-07-25T20:52:53.868Z,100320.94
2022-07-25T20:57:55.650Z,100326.34
2022-07-25T21:02:59.492Z,100347.16
2022-07-25T21:08:01.210Z,100341.97
2022-07-25T21:13:03.801Z,100348.19
2022-07-25T21:18:05.740Z,100347.59
2022-07-25T21:23:08.427Z,100349.38
2022-07-25T21:28:10.755Z,100365.66
2022-07-25T21:33:14.851Z,100379.97
2022-07-25T21:38:26.712Z,100410.28
2022-07-25T21:43:30.050Z,100443.09
2022-07-25T21:48:50.685Z,100478.75
2022-07-25T21:53:55.999Z,100442.28
2022-07-25T21:58:57.861Z,100443.84
2022-07-25T22:03:59.623Z,100463.50
2022-07-25T22:09:01.605Z,100473.44
2022-07-25T22:14:03.618Z,100456.34
2022-07-25T22:19:05.776Z,100448.88
2022-07-25T22:24:09.466Z,100476.34
2022-07-25T22:29:11.745Z,100485.38
2022-07-25T22:34:13.807Z,100490.78
2022-07-25T22:39:16.711Z,100480.03
2022-07-25T22:44:18.477Z,100463.41
2022-07-25T22:49:20.208Z,100443.44
2022-07-25T22:54:22.129Z,100464.56
2022-07-25T22:59:23.908Z,100467.59
2022-07-25T23:04:25.896Z,100475.56
2022-07-25T23:09:29.227Z,100474.66
2022-07-25T23:14:39.127Z,100493.94
2022-07-25T23:19:40.832Z,100499.53
2022-07-25T23:24:43.080Z,100508.44
2022-07-25T23:29:45.330Z,100531.25
2022-07-25T23:34:47.302Z,100525.28
2022-07-25T23:39:49.224Z,100526.75
2022-07-25T23:44:51.009Z,100527.97
2022-07-25T23:49:53.053Z,100565.28
2022-07-25T23:54:54.735Z,100559.88
2022-07-25T23:59:56.489Z,100559.25
